createdAt,value
2022-11-19T00:00:02.298Z,4.90
2022-11-19T00:01:02.301Z,5.30
2022-11-19T00:02:09.032Z,5.40
2022-11-19T00:03:02.269Z,5.00
2022-11-19T00:04:02.259Z,5.40
2022-11-19T00:05:02.244Z,4.60
2022-11-19T00:06:02.260Z,4.80
2022-11-19T00:07:02.249Z,5.30
2022-11-19T00:08:02.201Z,4.40
2022-11-19T00:09:02.216Z,4.80
2022-11-19T00:10:02.183Z,4.90
2022-11-19T00:11:05.392Z,4.50
2022-11-19T00:12:03.176Z,4.60
2022-11-19T00:13:02.138Z,4.90
2022-11-19T00:14:02.145Z,4.00
2022-11-19T00:15:02.132Z,4.70
2022-11-19T00:16:02.151Z,4.80
2022-11-19T00:17:02.124Z,4.80
2022-11-19T00:18:03.054Z,4.50
2022-11-19T00:19:02.151Z,4.70
2022-11-19T00:20:02.075Z,4.50
2022-11-19T00:21:02.078Z,4.60
2022-11-19T00:22:02.071Z,4.70
2022-11-19T00:23:02.041Z,4.60
2022-11-19T00:24:02.026Z,4.80
2022-11-19T00:25:02.033Z,4.70
2022-11-19T00:26:02.016Z,4.30
2022-11-19T00:27:02.027Z,4.40
2022-11-19T00:28:01.991Z,4.20
2022-11-19T00:29:01.976Z,4.40
2022-11-19T00:30:02.355Z,4.60
2022-11-19T00:31:01.969Z,4.50
2022-11-19T00:32:01.974Z,4.80
2022-11-19T00:33:01.937Z,4.70
2022-11-19T00:34:01.929Z,4.50
2022-11-19T00:35:01.930Z,3.90
2022-11-19T00:36:01.930Z,4.60
2022-11-19T00:37:01.902Z,4.30
2022-11-19T00:38:01.874Z,4.50
2022-11-19T00:39:01.891Z,4.70
2022-11-19T00:40:01.912Z,4.30
2022-11-19T00:41:01.881Z,4.30
2022-11-19T00:42:01.841Z,4.40
2022-11-19T00:43:01.838Z,4.60
2022-11-19T00:44:01.810Z,4.50
2022-11-19T00:45:01.838Z,4.10
2022-11-19T00:46:01.799Z,4.30
2022-11-19T00:47:01.790Z,5.10
2022-11-19T00:48:01.760Z,4.40
2022-11-19T00:49:01.781Z,4.70
2022-11-19T00:50:01.794Z,4.70
2022-11-19T00:51:01.730Z,4.50
2022-11-19T00:52:01.721Z,4.90
2022-11-19T00:53:01.716Z,4.60
2022-11-19T00:54:01.694Z,4.70
2022-11-19T00:55:01.691Z,4.50
2022-11-19T00:56:01.780Z,4.10
2022-11-19T00:57:03.638Z,3.90
2022-11-19T00:58:01.659Z,4.20
2022-11-19T00:59:01.711Z,4.60
2022-11-19T01:00:01.625Z,4.80
2022-11-19T01:01:01.710Z,4.60
2022-11-19T01:02:01.695Z,4.60
2022-11-19T01:03:01.605Z,4.40
2022-11-19T01:04:01.597Z,4.20
2022-11-19T01:05:01.580Z,4.30
2022-11-19T01:06:01.937Z,4.10
2022-11-19T01:07:01.640Z,4.30
2022-11-19T01:08:01.544Z,4.50
2022-11-19T01:09:01.543Z,3.80
2022-11-19T01:10:01.534Z,4.30
2022-11-19T01:11:01.616Z,4.40
2022-11-19T01:12:01.538Z,5.10
2022-11-19T01:13:01.496Z,5.20
2022-11-19T01:14:01.468Z,4.30
2022-11-19T01:15:01.496Z,4.40
2022-11-19T01:16:01.446Z,4.70
2022-11-19T01:17:01.470Z,4.00
2022-11-19T01:18:01.435Z,3.80
2022-11-19T01:19:01.423Z,4.50
2022-11-19T01:20:01.447Z,3.90
2022-11-19T01:21:01.420Z,4.40
2022-11-19T01:22:01.392Z,4.30
2022-11-19T01:23:01.387Z,4.70
2022-11-19T01:24:01.378Z,4.20
2022-11-19T01:25:01.359Z,4.50
2022-11-19T01:26:01.339Z,4.40
2022-11-19T01:27:01.334Z,4.90
2022-11-19T01:28:01.346Z,4.50
2022-11-19T01:29:01.341Z,4.70
2022-11-19T01:30:01.314Z,4.50
2022-11-19T01:31:01.296Z,4.50
2022-11-19T01:32:01.275Z,4.20
2022-11-19T01:33:01.275Z,4.70
2022-11-19T01:34:01.255Z,3.90
2022-11-19T01:35:01.298Z,3.70
2022-11-19T01:36:01.221Z,4.10
2022-11-19T01:37:01.218Z,4.70
2022-11-19T01:38:01.243Z,4.20
2022-11-19T01:39:01.228Z,4.00
2022-11-19T01:40:01.190Z,4.20
2022-11-19T01:41:01.203Z,4.40
2022-11-19T01:42:01.185Z,4.70
2022-11-19T01:43:01.159Z,4.60
2022-11-19T01:44:01.149Z,4.20
2022-11-19T01:45:01.187Z,5.00
2022-11-19T01:46:01.132Z,4.50
2022-11-19T01:47:02.058Z,4.80
2022-11-19T01:48:01.093Z,4.90
2022-11-19T01:49:01.082Z,4.60
2022-11-19T01:50:01.101Z,4.80
2022-11-19T01:51:01.095Z,4.70
2022-11-19T01:52:01.053Z,4.90
2022-11-19T01:53:01.074Z,4.50
2022-11-19T01:54:01.018Z,4.90
2022-11-19T01:55:01.024Z,5.10
2022-11-19T01:56:01.010Z,4.60
2022-11-19T01:57:01.014Z,5.00
2022-11-19T01:58:01.040Z,4.80
2022-11-19T01:59:01.003Z,5.20
2022-11-19T02:00:00.994Z,4.70
2022-11-19T02:01:01.001Z,5.40
2022-11-19T02:02:00.984Z,5.50
2022-11-19T02:03:00.936Z,5.80
2022-11-19T02:04:00.916Z,4.90
2022-11-19T02:05:00.907Z,5.20
2022-11-19T02:06:00.894Z,5.60
2022-11-19T02:07:00.935Z,5.00
2022-11-19T02:08:00.901Z,5.30
2022-11-19T02:09:00.867Z,5.60
2022-11-19T02:10:00.853Z,5.40
2022-11-19T02:11:00.841Z,5.20
2022-11-19T02:12:00.839Z,5.70
2022-11-19T02:13:00.847Z,5.50
2022-11-19T02:14:00.811Z,6.40
2022-11-19T02:15:00.807Z,5.30
2022-11-19T02:16:00.778Z,5.90
2022-11-19T02:17:00.863Z,6.10
2022-11-19T02:18:00.944Z,5.90
2022-11-19T02:19:00.753Z,6.10
2022-11-19T02:20:00.846Z,5.80
2022-11-19T02:21:00.816Z,5.80
2022-11-19T02:22:00.731Z,6.00
2022-11-19T02:23:00.703Z,5.50
2022-11-19T02:24:00.709Z,5.90
2022-11-19T02:25:00.693Z,5.00
2022-11-19T02:26:00.706Z,6.10
2022-11-19T02:27:00.674Z,6.20
2022-11-19T02:28:00.660Z,6.20
2022-11-19T02:29:00.652Z,6.20
2022-11-19T02:30:00.664Z,6.30
2022-11-19T02:31:00.621Z,6.10
2022-11-19T02:32:00.602Z,5.90
2022-11-19T02:33:00.586Z,5.90
2022-11-19T02:34:00.582Z,6.40
2022-11-19T02:35:00.570Z,6.30
2022-11-19T02:36:00.593Z,5.80
2022-11-19T02:37:00.543Z,6.70
2022-11-19T02:38:00.552Z,6.60
2022-11-19T02:39:00.527Z,6.50
2022-11-19T02:40:00.526Z,6.60
2022-11-19T02:41:00.526Z,6.80
2022-11-19T02:42:00.497Z,6.80
2022-11-19T02:43:00.507Z,7.20
2022-11-19T02:44:00.484Z,6.70
2022-11-19T02:45:00.467Z,7.10
2022-11-19T02:46:00.463Z,6.90
2022-11-19T02:47:00.485Z,7.40
2022-11-19T02:48:00.467Z,7.50
2022-11-19T02:49:00.413Z,7.50
2022-11-19T02:50:00.423Z,8.00
2022-11-19T02:51:00.395Z,7.90
2022-11-19T02:52:00.379Z,7.60
2022-11-19T02:53:00.367Z,7.80
2022-11-19T02:54:00.400Z,7.00
2022-11-19T02:55:00.347Z,8.50
2022-11-19T02:56:00.344Z,7.30
2022-11-19T02:57:00.310Z,7.50
2022-11-19T02:58:00.306Z,7.90
2022-11-19T02:59:00.291Z,7.70
2022-11-19T03:00:00.288Z,7.80
2022-11-19T03:01:00.367Z,8.50
2022-11-19T03:02:00.302Z,7.60
2022-11-19T03:03:00.260Z,8.10
2022-11-19T03:04:00.264Z,9.30
2022-11-19T03:05:00.233Z,8.90
2022-11-19T03:06:00.248Z,8.50
2022-11-19T03:07:00.279Z,8.70
2022-11-19T03:08:00.236Z,8.80
2022-11-19T03:09:00.202Z,9.40
2022-11-19T03:10:00.196Z,9.10
2022-11-19T03:11:00.179Z,9.00
2022-11-19T03:12:00.213Z,9.30
2022-11-19T03:13:00.140Z,9.60
2022-11-19T03:14:00.153Z,9.10
2022-11-19T03:15:00.157Z,10.10
2022-11-19T03:16:00.128Z,9.60
2022-11-19T03:17:00.105Z,9.70
2022-11-19T03:18:00.126Z,10.10
2022-11-19T03:19:00.078Z,9.80
2022-11-19T03:20:00.083Z,9.50
2022-11-19T03:21:00.135Z,11.00
2022-11-19T03:22:00.066Z,11.00
2022-11-19T03:23:00.072Z,11.10
2022-11-19T03:24:00.038Z,11.70
2022-11-19T03:25:00.022Z,11.00
2022-11-19T03:26:00.012Z,10.80
2022-11-19T03:26:59.997Z,10.00
2022-11-19T03:28:00.005Z,10.30
2022-11-19T03:29:00.008Z,11.00
2022-11-19T03:29:59.970Z,11.30
2022-11-19T03:30:59.962Z,10.90
2022-11-19T03:31:59.941Z,11.10
2022-11-19T03:32:59.925Z,11.20
2022-11-19T03:33:59.946Z,11.50
2022-11-19T03:34:59.912Z,11.30
2022-11-19T03:35:59.907Z,12.10
2022-11-19T03:36:59.892Z,10.60
2022-11-19T03:37:59.877Z,12.50
2022-11-19T03:38:59.918Z,12.20
2022-11-19T03:39:59.875Z,11.90
2022-11-19T03:40:59.852Z,12.30
2022-11-19T03:41:59.837Z,11.40
2022-11-19T03:42:59.814Z,11.70
2022-11-19T03:43:59.843Z,12.00
2022-11-19T03:44:59.792Z,11.80
2022-11-19T03:45:59.790Z,12.50
2022-11-19T03:46:59.775Z,11.80
2022-11-19T03:47:59.767Z,12.60
2022-11-19T03:48:59.752Z,12.00
2022-11-19T03:49:59.796Z,12.70
2022-11-19T03:50:59.733Z,12.60
2022-11-19T03:51:59.725Z,12.00
2022-11-19T03:53:04.143Z,11.80
2022-11-19T03:53:59.709Z,10.90
2022-11-19T03:54:59.687Z,9.70
2022-11-19T03:55:59.730Z,12.20
2022-11-19T03:56:59.671Z,11.90
2022-11-19T03:57:59.688Z,11.40
2022-11-19T03:58:59.637Z,11.80
2022-11-19T03:59:59.652Z,12.10
2022-11-19T04:00:59.624Z,12.30
2022-11-19T04:01:59.680Z,12.40
2022-11-19T04:02:59.630Z,12.40
2022-11-19T04:04:00.557Z,12.40
2022-11-19T04:04:59.576Z,12.90
2022-11-19T04:05:59.572Z,12.40
2022-11-19T04:06:59.578Z,12.50
2022-11-19T04:07:59.548Z,12.40
2022-11-19T04:08:59.577Z,12.70
2022-11-19T04:09:59.528Z,12.80
2022-11-19T04:11:34.889Z,12.10
2022-11-19T04:12:34.869Z,12.10
2022-11-19T04:13:34.860Z,11.80
2022-11-19T04:14:34.857Z,11.60
2022-11-19T04:15:34.840Z,11.50
2022-11-19T04:16:34.909Z,12.70
2022-11-19T04:17:34.820Z,12.40
2022-11-19T04:18:34.800Z,13.20
2022-11-19T04:19:34.816Z,12.70
2022-11-19T04:20:34.807Z,12.70
2022-11-19T04:21:34.776Z,12.50
2022-11-19T04:22:34.767Z,13.10
2022-11-19T04:23:34.748Z,12.20
2022-11-19T04:24:34.732Z,13.40
2022-11-19T04:25:34.775Z,12.90
2022-11-19T04:26:34.720Z,12.50
2022-11-19T04:27:34.729Z,13.50
2022-11-19T04:28:34.699Z,13.70
2022-11-19T04:29:34.684Z,13.00
2022-11-19T04:30:34.684Z,13.50
2022-11-19T04:31:34.652Z,13.40
2022-11-19T04:32:34.681Z,13.10
2022-11-19T04:33:34.639Z,14.10
2022-11-19T04:34:34.627Z,13.10
2022-11-19T04:35:34.620Z,13.10
2022-11-19T04:36:34.597Z,13.80
2022-11-19T04:37:34.591Z,11.80
2022-11-19T04:38:34.600Z,11.50
2022-11-19T04:39:34.577Z,13.40
2022-11-19T04:40:34.571Z,13.30
2022-11-19T04:41:34.574Z,13.60
2022-11-19T04:42:34.570Z,14.40
2022-11-19T04:43:34.522Z,14.70
2022-11-19T04:44:34.531Z,13.90
2022-11-19T04:45:34.510Z,14.20
2022-11-19T04:46:34.496Z,14.20
2022-11-19T04:47:34.473Z,13.80
2022-11-19T04:48:34.493Z,13.40
2022-11-19T04:49:34.511Z,14.80
2022-11-19T04:50:34.466Z,13.00
2022-11-19T04:51:34.435Z,14.50
2022-11-19T04:52:40.294Z,14.00
2022-11-19T04:53:35.415Z,14.80
2022-11-19T04:54:34.393Z,14.50
2022-11-19T04:55:34.438Z,14.80
2022-11-19T04:56:34.383Z,14.20
2022-11-19T04:57:34.365Z,13.80
2022-11-19T04:58:34.365Z,14.60
2022-11-19T04:59:35.296Z,15.30
2022-11-19T05:00:34.349Z,14.70
2022-11-19T05:01:34.401Z,14.60
2022-11-19T05:02:34.361Z,14.70
2022-11-19T05:03:34.307Z,15.70
2022-11-19T05:04:34.280Z,14.30
2022-11-19T05:05:34.307Z,14.70
2022-11-19T05:06:34.265Z,12.90
2022-11-19T05:07:34.338Z,14.50
2022-11-19T05:08:34.296Z,14.50
2022-11-19T05:09:34.252Z,15.30
2022-11-19T05:10:34.222Z,15.00
2022-11-19T05:11:34.218Z,14.60
2022-11-19T05:12:34.221Z,15.40
2022-11-19T05:13:34.197Z,15.10
2022-11-19T05:14:34.220Z,15.70
2022-11-19T05:15:34.226Z,14.60
2022-11-19T05:16:34.208Z,15.50
2022-11-19T05:17:34.162Z,15.00
2022-11-19T05:18:34.137Z,14.30
2022-11-19T05:19:34.143Z,14.80
2022-11-19T05:20:34.112Z,14.80
2022-11-19T05:21:34.098Z,14.60
2022-11-19T05:22:34.099Z,15.40
2022-11-19T05:23:34.143Z,15.80
2022-11-19T05:24:34.098Z,14.90
2022-11-19T05:25:34.088Z,14.20
2022-11-19T05:26:34.053Z,15.40
2022-11-19T05:27:34.039Z,14.50
2022-11-19T05:28:38.997Z,14.50
2022-11-19T05:29:35.262Z,14.90
2022-11-19T05:30:34.000Z,14.80
2022-11-19T05:31:33.988Z,15.40
2022-11-19T05:32:33.975Z,15.10
2022-11-19T05:33:34.647Z,15.40
2022-11-19T05:34:33.984Z,14.60
2022-11-19T05:35:33.984Z,14.70
2022-11-19T05:36:33.934Z,16.00
2022-11-19T05:37:33.936Z,15.50
2022-11-19T05:38:33.925Z,15.40
2022-11-19T05:39:33.909Z,15.80
2022-11-19T05:40:33.926Z,15.20
2022-11-19T05:41:33.882Z,14.90
2022-11-19T05:42:33.871Z,15.70
2022-11-19T05:43:33.870Z,11.90
2022-11-19T05:44:33.842Z,13.70
2022-11-19T05:45:33.844Z,14.10
2022-11-19T05:46:33.862Z,14.20
2022-11-19T05:47:33.846Z,14.40
2022-11-19T05:48:33.813Z,14.60
2022-11-19T05:49:33.798Z,14.60
2022-11-19T05:50:33.812Z,15.30
2022-11-19T05:51:33.767Z,14.80
2022-11-19T05:52:33.760Z,15.20
2022-11-19T05:53:33.762Z,16.10
2022-11-19T05:54:33.776Z,14.90
2022-11-19T05:55:33.875Z,14.70
2022-11-19T05:56:33.749Z,14.90
2022-11-19T05:57:33.714Z,15.00
2022-11-19T05:58:33.695Z,15.80
2022-11-19T05:59:33.686Z,15.10
2022-11-19T06:00:33.738Z,16.20
2022-11-19T06:01:33.690Z,15.00
2022-11-19T06:02:33.709Z,15.10
2022-11-19T06:03:33.637Z,14.90
2022-11-19T06:04:33.699Z,15.00
2022-11-19T06:05:38.745Z,14.60
2022-11-19T06:06:34.615Z,15.90
2022-11-19T06:07:33.649Z,14.70
2022-11-19T06:08:33.618Z,15.30
2022-11-19T06:09:34.380Z,15.10
2022-11-19T06:10:33.556Z,15.20
2022-11-19T06:11:33.545Z,14.80
2022-11-19T06:12:33.527Z,15.10
2022-11-19T06:13:33.535Z,14.90
2022-11-19T06:14:33.539Z,14.60
2022-11-19T06:15:33.507Z,15.30
2022-11-19T06:16:33.489Z,15.90
2022-11-19T06:17:33.499Z,15.20
2022-11-19T06:18:33.534Z,15.30
2022-11-19T06:19:33.478Z,14.80
2022-11-19T06:20:33.479Z,15.40
2022-11-19T06:21:33.531Z,15.80
2022-11-19T06:22:33.471Z,15.70
2022-11-19T06:23:33.490Z,14.90
2022-11-19T06:24:33.761Z,15.50
2022-11-19T06:25:33.397Z,15.00
2022-11-19T06:26:33.699Z,15.70
2022-11-19T06:27:34.842Z,15.50
2022-11-19T06:28:34.303Z,15.50
2022-11-19T06:29:34.799Z,16.20
2022-11-19T06:30:33.379Z,15.80
2022-11-19T06:31:33.462Z,15.60
2022-11-19T06:32:33.333Z,15.90
2022-11-19T06:33:33.301Z,15.50
2022-11-19T06:34:34.243Z,15.60
2022-11-19T06:35:33.290Z,16.20
2022-11-19T06:36:39.048Z,17.00
2022-11-19T06:37:34.287Z,16.20
2022-11-19T06:38:33.306Z,17.00
2022-11-19T06:39:33.241Z,16.10
2022-11-19T06:40:33.245Z,13.70
2022-11-19T06:41:33.231Z,14.80
2022-11-19T06:42:33.224Z,16.30
2022-11-19T06:43:33.243Z,16.40
2022-11-19T06:44:33.177Z,16.10
2022-11-19T06:45:34.122Z,16.30
2022-11-19T06:46:34.143Z,15.70
2022-11-19T06:47:33.193Z,15.70
2022-11-19T06:48:33.181Z,16.40
2022-11-19T06:49:33.264Z,15.90
2022-11-19T06:50:34.046Z,16.30
2022-11-19T06:51:33.194Z,17.00
2022-11-19T06:52:34.541Z,16.50
2022-11-19T06:53:33.137Z,16.20
2022-11-19T06:54:36.730Z,16.60
2022-11-19T06:55:34.061Z,15.80
2022-11-19T06:56:33.056Z,17.10
2022-11-19T06:57:33.849Z,16.90
2022-11-19T06:58:33.258Z,16.60
2022-11-19T06:59:33.143Z,16.50
2022-11-19T07:00:33.010Z,17.00
2022-11-19T07:01:33.054Z,17.70
2022-11-19T07:02:33.347Z,17.30
2022-11-19T07:03:34.188Z,17.80
2022-11-19T07:04:32.959Z,13.60
2022-11-19T07:05:32.973Z,15.60
2022-11-19T07:06:32.951Z,16.60
2022-11-19T07:07:32.968Z,17.40
2022-11-19T07:08:33.360Z,17.50
2022-11-19T07:09:32.904Z,16.90
2022-11-19T07:10:32.899Z,16.60
2022-11-19T07:11:32.911Z,16.50
2022-11-19T07:12:32.877Z,17.50
2022-11-19T07:13:32.884Z,17.00
2022-11-19T07:14:32.879Z,16.50
2022-11-19T07:15:33.033Z,17.10
2022-11-19T07:16:33.100Z,17.60
2022-11-19T07:17:32.839Z,16.60
2022-11-19T07:18:32.843Z,17.10
2022-11-19T07:19:33.419Z,16.40
2022-11-19T07:20:32.794Z,17.20
2022-11-19T07:21:32.780Z,17.00
2022-11-19T07:22:34.212Z,17.40
2022-11-19T07:23:32.764Z,17.30
2022-11-19T07:24:32.733Z,17.10
2022-11-19T07:25:32.765Z,17.70
2022-11-19T07:26:32.720Z,16.80
2022-11-19T07:27:32.711Z,17.20
2022-11-19T07:28:32.695Z,17.40
2022-11-19T07:29:32.770Z,17.70
2022-11-19T07:30:32.854Z,16.60
2022-11-19T07:31:32.706Z,16.80
2022-11-19T07:32:32.662Z,17.90
2022-11-19T07:33:33.267Z,17.50
2022-11-19T07:34:32.638Z,16.90
2022-11-19T07:35:33.202Z,17.00
2022-11-19T07:36:32.862Z,16.60
2022-11-19T07:37:32.818Z,17.50
2022-11-19T07:38:36.770Z,17.00
2022-11-19T07:39:32.577Z,16.90
2022-11-19T07:40:32.622Z,17.40
2022-11-19T07:41:32.558Z,18.20
2022-11-19T07:42:32.557Z,16.60
2022-11-19T07:43:32.568Z,16.70
2022-11-19T07:44:32.702Z,16.90
2022-11-19T07:45:32.497Z,16.20
2022-11-19T07:46:32.503Z,15.60
2022-11-19T07:47:32.494Z,15.70
2022-11-19T07:48:32.490Z,16.30
2022-11-19T07:49:32.498Z,16.00
2022-11-19T07:50:32.913Z,16.90
2022-11-19T07:51:33.890Z,15.40
2022-11-19T07:52:32.423Z,16.40
2022-11-19T07:53:32.418Z,15.70
2022-11-19T07:54:32.423Z,16.60
2022-11-19T07:55:32.438Z,16.30
2022-11-19T07:56:32.396Z,16.10
2022-11-19T07:57:32.380Z,15.50
2022-11-19T07:58:32.367Z,15.40
2022-11-19T07:59:32.370Z,15.00
2022-11-19T08:00:32.343Z,14.70
2022-11-19T08:01:32.381Z,15.80
2022-11-19T08:02:32.339Z,14.90
2022-11-19T08:03:32.308Z,16.00
2022-11-19T08:04:32.297Z,15.20
2022-11-19T08:05:32.316Z,15.80
2022-11-19T08:06:32.311Z,15.30
2022-11-19T08:07:32.437Z,15.60
2022-11-19T08:08:32.246Z,14.90
2022-11-19T08:09:32.306Z,14.50
2022-11-19T08:10:32.240Z,15.20
2022-11-19T08:11:32.250Z,14.60
2022-11-19T08:12:32.383Z,15.50
2022-11-19T08:13:32.278Z,15.40
2022-11-19T08:14:32.204Z,15.60
2022-11-19T08:15:32.170Z,15.40
2022-11-19T08:16:32.385Z,15.70
2022-11-19T08:17:32.154Z,14.60
2022-11-19T08:18:32.413Z,15.20
2022-11-19T08:19:32.136Z,15.30
2022-11-19T08:20:32.277Z,15.10
2022-11-19T08:21:32.114Z,14.60
2022-11-19T08:22:32.294Z,14.50
2022-11-19T08:23:32.136Z,15.00
2022-11-19T08:24:32.090Z,14.90
2022-11-19T08:25:32.097Z,15.20
2022-11-19T08:26:32.080Z,14.50
2022-11-19T08:27:32.092Z,14.10
2022-11-19T08:28:32.100Z,14.50
2022-11-19T08:29:32.024Z,13.60
2022-11-19T08:30:32.034Z,14.10
2022-11-19T08:31:32.268Z,14.70
2022-11-19T08:32:31.987Z,14.20
2022-11-19T08:33:32.025Z,14.50
2022-11-19T08:34:31.970Z,15.10
2022-11-19T08:35:31.974Z,13.70
2022-11-19T08:36:31.957Z,15.30
2022-11-19T08:37:31.936Z,14.10
2022-11-19T08:38:37.246Z,14.70
2022-11-19T08:39:32.941Z,14.90
2022-11-19T08:40:31.929Z,14.70
2022-11-19T08:41:31.884Z,13.20
2022-11-19T08:42:31.875Z,14.10
2022-11-19T08:43:32.829Z,14.50
2022-11-19T08:44:31.896Z,14.90
2022-11-19T08:45:32.843Z,14.60
2022-11-19T08:46:32.023Z,14.60
2022-11-19T08:47:31.820Z,14.10
2022-11-19T08:48:31.841Z,12.00
2022-11-19T08:49:31.792Z,13.60
2022-11-19T08:50:31.789Z,14.70
2022-11-19T08:51:31.805Z,14.00
2022-11-19T08:52:31.769Z,13.90
2022-11-19T08:53:31.756Z,14.40
2022-11-19T08:54:31.744Z,13.60
2022-11-19T08:55:31.731Z,13.70
2022-11-19T08:56:32.000Z,14.60
2022-11-19T08:57:31.715Z,14.20
2022-11-19T08:58:31.722Z,13.60
2022-11-19T08:59:31.675Z,14.60
2022-11-19T09:00:31.859Z,13.50
2022-11-19T09:01:31.708Z,14.70
2022-11-19T09:02:31.695Z,14.80
2022-11-19T09:03:31.664Z,15.60
2022-11-19T09:04:33.083Z,13.80
2022-11-19T09:05:31.618Z,15.20
2022-11-19T09:06:31.671Z,14.80
2022-11-19T09:07:31.640Z,15.00
2022-11-19T09:08:31.792Z,14.80
2022-11-19T09:09:31.567Z,13.60
2022-11-19T09:10:31.578Z,14.00
2022-11-19T09:11:31.833Z,13.80
2022-11-19T09:12:31.564Z,13.90
2022-11-19T09:13:31.544Z,14.30
2022-11-19T09:14:31.533Z,14.30
2022-11-19T09:15:31.511Z,13.20
2022-11-19T09:16:31.518Z,14.40
2022-11-19T09:17:31.537Z,14.40
2022-11-19T09:18:32.329Z,14.00
2022-11-19T09:19:31.461Z,11.40
2022-11-19T09:20:32.925Z,13.60
2022-11-19T09:21:31.440Z,12.80
2022-11-19T09:22:31.439Z,13.10
2022-11-19T09:23:31.424Z,14.10
2022-11-19T09:24:31.437Z,13.80
2022-11-19T09:25:31.412Z,13.80
2022-11-19T09:26:31.424Z,13.80
2022-11-19T09:27:31.383Z,13.80
2022-11-19T09:28:31.382Z,13.70
2022-11-19T09:29:31.411Z,13.80
2022-11-19T09:30:31.332Z,14.00
2022-11-19T09:31:32.273Z,13.40
2022-11-19T09:32:31.335Z,14.30
2022-11-19T09:33:31.331Z,13.70
2022-11-19T09:34:31.422Z,14.00
2022-11-19T09:35:31.294Z,13.30
2022-11-19T09:36:31.426Z,13.40
2022-11-19T09:37:31.282Z,13.60
2022-11-19T09:38:31.259Z,13.60
2022-11-19T09:39:31.242Z,14.00
2022-11-19T09:40:31.431Z,15.30
2022-11-19T09:41:31.214Z,13.10
2022-11-19T09:42:31.223Z,13.80
2022-11-19T09:43:31.202Z,14.80
2022-11-19T09:44:31.175Z,13.90
2022-11-19T09:45:31.229Z,13.10
2022-11-19T09:46:31.162Z,13.90
2022-11-19T09:47:31.194Z,14.60
2022-11-19T09:48:31.215Z,13.60
2022-11-19T09:49:31.144Z,14.10
2022-11-19T09:50:31.429Z,14.00
2022-11-19T09:51:31.110Z,13.40
2022-11-19T09:52:31.085Z,13.50
2022-11-19T09:53:31.084Z,10.90
2022-11-19T09:54:32.025Z,13.30
2022-11-19T09:55:31.053Z,14.50
2022-11-19T09:56:31.067Z,13.80
2022-11-19T09:57:31.056Z,14.20
2022-11-19T09:58:31.017Z,14.10
2022-11-19T09:59:31.005Z,13.60
2022-11-19T10:00:30.996Z,13.50
2022-11-19T10:01:31.113Z,12.70
2022-11-19T10:02:31.954Z,13.90
2022-11-19T10:03:33.719Z,13.00
2022-11-19T10:04:31.002Z,15.00
2022-11-19T10:05:30.947Z,14.50
2022-11-19T10:06:30.968Z,13.80
2022-11-19T10:07:30.983Z,13.70
2022-11-19T10:08:30.917Z,14.40
2022-11-19T10:09:30.925Z,14.30
2022-11-19T10:10:31.432Z,15.20
2022-11-19T10:11:30.898Z,15.30
2022-11-19T10:12:30.869Z,14.00
2022-11-19T10:13:30.850Z,14.90
2022-11-19T10:14:30.839Z,14.50
2022-11-19T10:15:36.062Z,15.00
2022-11-19T10:16:31.831Z,14.90
2022-11-19T10:17:30.800Z,14.90
2022-11-19T10:18:30.789Z,13.80
2022-11-19T10:19:30.837Z,30.10
2022-11-19T10:20:30.785Z,33.20
2022-11-19T10:21:30.784Z,31.20
2022-11-19T10:22:30.765Z,18.00
2022-11-19T10:23:30.781Z,15.70
2022-11-19T10:24:30.730Z,15.60
2022-11-19T10:25:30.715Z,15.80
2022-11-19T10:26:30.714Z,15.40
2022-11-19T10:27:30.689Z,16.10
2022-11-19T10:28:30.696Z,14.80
2022-11-19T10:29:30.715Z,14.60
2022-11-19T10:30:30.662Z,15.50
2022-11-19T10:31:30.710Z,15.30
2022-11-19T10:32:30.686Z,15.90
2022-11-19T10:33:30.638Z,14.20
2022-11-19T10:34:30.632Z,15.00
2022-11-19T10:35:30.603Z,15.10
2022-11-19T10:36:30.597Z,14.60
2022-11-19T10:37:30.616Z,11.90
2022-11-19T10:38:30.650Z,13.70
2022-11-19T10:39:30.629Z,14.10
2022-11-19T10:40:30.589Z,14.30
2022-11-19T10:41:30.543Z,14.90
2022-11-19T10:42:31.498Z,15.20
2022-11-19T10:43:30.506Z,14.90
2022-11-19T10:44:30.548Z,14.70
2022-11-19T10:45:30.495Z,15.20
2022-11-19T10:46:30.487Z,15.20
2022-11-19T10:47:30.487Z,14.30
2022-11-19T10:48:30.505Z,14.80
2022-11-19T10:49:30.455Z,14.40
2022-11-19T10:50:30.472Z,14.70
2022-11-19T10:51:30.433Z,14.40
2022-11-19T10:52:30.418Z,14.80
2022-11-19T10:53:30.448Z,14.30
2022-11-19T10:54:30.386Z,14.00
2022-11-19T10:55:30.375Z,14.50
2022-11-19T10:56:30.649Z,14.70
2022-11-19T10:57:30.363Z,15.00
2022-11-19T10:58:31.210Z,14.20
2022-11-19T10:59:30.328Z,14.70
2022-11-19T11:00:30.341Z,14.40
2022-11-19T11:01:30.362Z,14.20
2022-11-19T11:02:30.344Z,14.70
2022-11-19T11:03:30.310Z,13.50
2022-11-19T11:04:30.699Z,15.30
2022-11-19T11:05:30.269Z,14.90
2022-11-19T11:06:30.299Z,14.10
2022-11-19T11:07:30.269Z,14.00
2022-11-19T11:08:30.241Z,14.50
2022-11-19T11:09:30.227Z,14.10
2022-11-19T11:10:30.221Z,14.10
2022-11-19T11:11:30.215Z,13.80
2022-11-19T11:12:30.437Z,13.60
2022-11-19T11:13:30.202Z,13.50
2022-11-19T11:14:30.185Z,13.60
2022-11-19T11:15:30.156Z,13.60
2022-11-19T11:16:35.140Z,13.90
2022-11-19T11:17:31.162Z,14.00
2022-11-19T11:18:31.582Z,13.40
2022-11-19T11:19:30.516Z,13.80
2022-11-19T11:20:31.509Z,14.10
2022-11-19T11:21:30.101Z,13.20
2022-11-19T11:22:31.511Z,14.50
2022-11-19T11:23:30.102Z,14.20
2022-11-19T11:24:30.153Z,14.40
2022-11-19T11:25:30.051Z,12.80
2022-11-19T11:26:30.042Z,14.10
2022-11-19T11:27:30.166Z,14.10
2022-11-19T11:28:30.129Z,13.90
2022-11-19T11:29:30.017Z,14.30
2022-11-19T11:30:31.447Z,14.40
2022-11-19T11:31:30.025Z,14.10
2022-11-19T11:32:30.114Z,14.10
2022-11-19T11:33:30.909Z,14.50
2022-11-19T11:34:30.003Z,14.70
2022-11-19T11:35:29.940Z,13.90
2022-11-19T11:36:29.937Z,14.40
2022-11-19T11:37:30.035Z,14.60
2022-11-19T11:38:29.911Z,13.60
2022-11-19T11:39:30.277Z,15.10
2022-11-19T11:40:30.127Z,14.60
2022-11-19T11:42:04.420Z,14.00
2022-11-19T11:42:30.896Z,14.20
2022-11-19T11:43:29.845Z,15.20
2022-11-19T11:44:31.319Z,14.30
2022-11-19T11:45:29.887Z,14.30
2022-11-19T11:46:29.855Z,14.90
2022-11-19T11:47:29.860Z,14.10
2022-11-19T11:48:31.271Z,13.50
2022-11-19T11:49:29.822Z,14.30
2022-11-19T11:50:30.057Z,11.40
2022-11-19T11:51:29.816Z,13.60
2022-11-19T11:52:29.761Z,14.20
2022-11-19T11:53:29.771Z,14.10
2022-11-19T11:54:30.690Z,13.60
2022-11-19T11:55:30.122Z,13.60
2022-11-19T11:56:29.757Z,13.40
2022-11-19T11:57:29.758Z,13.70
2022-11-19T11:58:29.693Z,14.00
2022-11-19T11:59:29.691Z,14.20
2022-11-19T12:00:30.009Z,14.20
2022-11-19T12:01:29.663Z,13.80
2022-11-19T12:02:30.757Z,13.80
2022-11-19T12:03:29.649Z,13.80
2022-11-19T12:04:29.675Z,13.80
2022-11-19T12:05:29.618Z,13.50
2022-11-19T12:06:29.912Z,13.50
2022-11-19T12:07:29.704Z,13.40
2022-11-19T12:08:29.736Z,13.30
2022-11-19T12:09:29.569Z,12.30
2022-11-19T12:10:29.562Z,12.80
2022-11-19T12:11:29.550Z,13.20
2022-11-19T12:12:29.537Z,12.30
2022-11-19T12:13:29.560Z,12.00
2022-11-19T12:14:29.512Z,12.70
2022-11-19T12:15:29.511Z,11.80
2022-11-19T12:16:29.487Z,12.00
2022-11-19T12:17:29.488Z,12.20
2022-11-19T12:18:29.624Z,13.20
2022-11-19T12:19:29.487Z,12.60
2022-11-19T12:20:30.251Z,13.30
2022-11-19T12:21:29.438Z,12.40
2022-11-19T12:22:30.872Z,13.10
2022-11-19T12:23:29.443Z,13.20
2022-11-19T12:24:29.414Z,12.80
2022-11-19T12:25:29.403Z,13.10
2022-11-19T12:26:29.558Z,12.60
2022-11-19T12:27:29.383Z,12.30
2022-11-19T12:28:29.383Z,12.40
2022-11-19T12:29:29.345Z,12.60
2022-11-19T12:30:29.334Z,11.70
2022-11-19T12:31:30.148Z,12.30
2022-11-19T12:32:29.323Z,12.20
2022-11-19T12:33:29.303Z,12.40
2022-11-19T12:34:29.613Z,11.80
2022-11-19T12:35:29.280Z,11.90
2022-11-19T12:36:29.269Z,12.90
2022-11-19T12:37:29.514Z,12.50
2022-11-19T12:38:29.477Z,11.70
2022-11-19T12:39:29.454Z,13.30
2022-11-19T12:40:38.518Z,11.50
2022-11-19T12:41:30.215Z,12.20
2022-11-19T12:42:29.206Z,12.00
2022-11-19T12:43:30.107Z,12.20
2022-11-19T12:44:29.184Z,11.80
2022-11-19T12:45:29.768Z,12.80
2022-11-19T12:46:29.149Z,12.60
2022-11-19T12:47:29.807Z,12.30
2022-11-19T12:48:29.251Z,12.80
2022-11-19T12:49:29.157Z,13.20
2022-11-19T12:50:29.621Z,12.20
2022-11-19T12:51:29.676Z,12.20
2022-11-19T12:52:29.233Z,11.60
2022-11-19T12:53:29.096Z,11.80
2022-11-19T12:54:34.945Z,11.70
2022-11-19T12:55:30.064Z,10.70
2022-11-19T12:56:29.102Z,11.40
2022-11-19T12:57:29.172Z,11.70
2022-11-19T12:58:29.030Z,11.70
2022-11-19T12:59:29.080Z,11.10